createdAt,value
2019-04-01T00:01:53.188Z,39.30
2019-04-01T00:04:27.464Z,39.23
2019-04-01T00:06:57.173Z,37.97
2019-04-01T00:09:26.514Z,38.33
2019-04-01T00:11:56.676Z,40.93
2019-04-01T00:14:25.860Z,35.63
2019-04-01T00:16:55.039Z,37.23
2019-04-01T00:19:24.255Z,37.73
2019-04-01T00:21:53.484Z,39.73
2019-04-01T00:24:22.803Z,37.93
2019-04-01T00:26:51.988Z,38.27
2019-04-01T00:29:21.138Z,40.07
2019-04-01T00:31:50.411Z,35.57
2019-04-01T00:34:19.583Z,39.47
2019-04-01T00:36:48.893Z,35.90
2019-04-01T00:39:18.065Z,36.17
2019-04-01T00:42:06.271Z,36.17
2019-04-01T00:44:35.691Z,37.30
2019-04-01T00:47:04.950Z,38.93
2019-04-01T00:49:34.136Z,36.00
2019-04-01T00:52:03.473Z,40.47
2019-04-01T00:54:32.693Z,38.30
2019-04-01T00:57:01.878Z,34.90
2019-04-01T00:59:31.142Z,39.60
2019-04-01T01:02:02.333Z,38.93
2019-04-01T01:04:31.635Z,41.70
2019-04-01T01:07:00.840Z,38.17
2019-04-01T01:09:30.332Z,40.90
2019-04-01T01:11:59.520Z,35.53
2019-04-01T01:14:28.726Z,38.97
2019-04-01T01:16:57.885Z,38.73
2019-04-01T01:19:27.192Z,40.23
2019-04-01T01:21:56.376Z,37.07
2019-04-01T01:24:25.574Z,44.77
2019-04-01T01:26:54.735Z,38.67
2019-04-01T01:29:23.999Z,40.30
2019-04-01T01:31:53.181Z,36.37
2019-04-01T01:34:22.685Z,38.63
2019-04-01T01:36:51.849Z,37.10
2019-04-01T01:39:21.061Z,40.43
2019-04-01T01:41:50.433Z,37.93
2019-04-01T01:44:19.605Z,38.97
2019-04-01T01:46:48.808Z,39.43
2019-04-01T01:49:18.131Z,39.97
2019-04-01T01:51:47.340Z,37.77
2019-04-01T01:54:16.525Z,39.63
2019-04-01T01:56:45.735Z,41.63
2019-04-01T01:59:14.893Z,39.87
2019-04-01T02:01:44.166Z,37.40
2019-04-01T02:04:13.410Z,38.77
2019-04-01T02:06:42.619Z,38.60
2019-04-01T02:09:11.796Z,40.10
2019-04-01T02:11:41.208Z,41.90
2019-04-01T02:14:10.654Z,44.50
2019-04-01T02:16:39.836Z,39.10
2019-04-01T02:19:09.009Z,42.97
2019-04-01T02:21:38.324Z,40.97
2019-04-01T02:24:07.575Z,42.10
2019-04-01T02:26:36.784Z,37.60
2019-04-01T02:29:06.064Z,39.17
2019-04-01T02:31:35.565Z,40.77
2019-04-01T02:34:04.969Z,38.43
2019-04-01T02:36:34.215Z,41.17
2019-04-01T02:39:06.150Z,40.50
2019-04-01T02:41:35.663Z,38.50
2019-04-01T02:44:05.050Z,39.70
2019-04-01T02:46:34.249Z,39.93
2019-04-01T02:49:03.436Z,43.37
2019-04-01T02:51:35.269Z,39.07
2019-04-01T02:54:04.695Z,38.73
2019-04-01T02:56:33.878Z,48.43
2019-04-01T02:59:03.033Z,40.33
2019-04-01T03:01:32.217Z,40.50
2019-04-01T03:04:08.000Z,41.93
2019-04-01T03:06:37.287Z,43.73
2019-04-01T03:09:11.366Z,39.77
2019-04-01T03:11:54.984Z,40.70
2019-04-01T03:14:30.526Z,45.50
2019-04-01T03:17:17.981Z,40.73
2019-04-01T03:19:47.173Z,43.40
2019-04-01T03:22:28.082Z,40.37
2019-04-01T03:24:54.651Z,44.10
2019-04-01T03:27:24.122Z,39.40
2019-04-01T03:29:53.658Z,41.63
2019-04-01T03:32:23.169Z,39.17
2019-04-01T03:34:52.726Z,44.37
2019-04-01T03:37:22.279Z,38.37
2019-04-01T03:39:51.857Z,43.30
2019-04-01T03:42:21.409Z,44.63
2019-04-01T03:44:54.788Z,40.07
2019-04-01T03:47:21.667Z,41.33
2019-04-01T03:49:50.991Z,48.57
2019-04-01T03:52:20.583Z,44.10
2019-04-01T03:54:50.008Z,43.57
2019-04-01T03:57:19.651Z,48.13
2019-04-01T03:59:49.113Z,39.20
2019-04-01T04:02:18.275Z,40.43
2019-04-01T04:04:47.441Z,46.20
2019-04-01T04:07:16.811Z,40.60
2019-04-01T04:09:46.432Z,42.83
2019-04-01T04:12:15.820Z,43.27
2019-04-01T04:14:45.082Z,42.67
2019-04-01T04:17:14.346Z,49.80
2019-04-01T04:19:43.533Z,68.90
2019-04-01T04:22:12.692Z,42.30
2019-04-01T04:24:42.046Z,44.93
2019-04-01T04:27:11.634Z,122.00
2019-04-01T04:29:41.160Z,52.60
2019-04-01T04:32:10.330Z,42.40
2019-04-01T04:34:39.936Z,43.27
2019-04-01T04:37:09.442Z,43.53
2019-04-01T04:39:38.888Z,44.50
2019-04-01T04:42:08.562Z,47.07
2019-04-01T04:44:38.001Z,48.10
2019-04-01T04:47:07.190Z,44.77
2019-04-01T04:49:36.420Z,43.50
2019-04-01T04:52:05.676Z,67.50
2019-04-01T04:54:34.854Z,74.97
2019-04-01T04:57:04.113Z,54.80
2019-04-01T04:59:33.345Z,46.90
2019-04-01T05:02:02.636Z,39.10
2019-04-01T05:04:31.780Z,46.53
2019-04-01T05:07:01.403Z,41.77
2019-04-01T05:09:30.581Z,40.07
2019-04-01T05:12:00.155Z,41.23
2019-04-01T05:14:29.565Z,42.93
2019-04-01T05:16:58.807Z,40.20
2019-04-01T05:19:28.072Z,43.90
2019-04-01T05:21:58.360Z,41.83
2019-04-01T05:24:28.137Z,41.50
2019-04-01T05:26:59.765Z,39.60
2019-04-01T05:29:51.076Z,40.60
2019-04-01T05:32:22.080Z,43.23
2019-04-01T05:34:54.255Z,44.90
2019-04-01T05:37:23.461Z,87.90
2019-04-01T05:39:53.013Z,49.17
2019-04-01T05:42:22.549Z,46.00
2019-04-01T05:44:51.709Z,41.97
2019-04-01T05:47:24.796Z,42.23
2019-04-01T05:49:53.956Z,42.17
2019-04-01T05:52:23.123Z,42.20
2019-04-01T05:54:52.715Z,43.40
2019-04-01T05:57:22.311Z,41.23
2019-04-01T05:59:51.659Z,41.37
2019-04-01T06:02:20.840Z,43.50
2019-04-01T06:04:50.011Z,44.43
2019-04-01T06:07:19.353Z,49.40
2019-04-01T06:09:49.013Z,42.77
2019-04-01T06:12:18.408Z,45.80
2019-04-01T06:14:48.405Z,50.40
2019-04-01T06:17:17.848Z,45.87
2019-04-01T06:19:47.454Z,44.07
2019-04-01T06:22:17.192Z,42.13
2019-04-01T06:24:46.387Z,43.37
2019-04-01T06:27:16.218Z,43.50
2019-04-01T06:29:46.208Z,47.47
2019-04-01T06:32:16.299Z,43.10
2019-04-01T06:34:52.764Z,44.93
2019-04-01T06:37:16.792Z,46.10
2019-04-01T06:39:46.119Z,45.83
2019-04-01T06:42:15.300Z,47.03
2019-04-01T06:44:44.515Z,49.70
2019-04-01T06:47:14.193Z,51.03
2019-04-01T06:49:43.424Z,46.00
2019-04-01T06:52:12.699Z,42.00
2019-04-01T06:54:41.971Z,45.10
2019-04-01T06:57:11.144Z,47.17
2019-04-01T06:59:40.689Z,44.17
2019-04-01T07:02:10.171Z,42.00
2019-04-01T07:04:39.449Z,43.00
2019-04-01T07:07:18.784Z,40.20
2019-04-01T07:09:39.960Z,85.57
2019-04-01T07:12:09.525Z,44.90
2019-04-01T07:14:38.951Z,40.07
2019-04-01T07:17:08.855Z,43.90
2019-04-01T07:19:38.107Z,38.07
2019-04-01T07:22:07.657Z,39.00
2019-04-01T07:24:37.110Z,39.73
2019-04-01T07:27:08.283Z,37.73
2019-04-01T07:29:37.506Z,41.60
2019-04-01T07:32:06.767Z,41.27
2019-04-01T07:34:36.300Z,36.63
2019-04-01T07:37:05.801Z,41.30
2019-04-01T07:39:35.208Z,38.07
2019-04-01T07:42:04.832Z,38.83
2019-04-01T07:44:34.345Z,31.63
2019-04-01T07:47:04.167Z,37.50
2019-04-01T07:49:33.500Z,36.97
2019-04-01T07:52:02.709Z,36.30
2019-04-01T07:54:32.162Z,35.83
2019-04-01T07:57:01.836Z,35.73
2019-04-01T07:59:31.304Z,38.17
2019-04-01T08:02:00.499Z,38.43
2019-04-01T08:04:29.917Z,40.70
2019-04-01T08:06:59.333Z,35.73
2019-04-01T08:09:28.521Z,39.80
2019-04-01T08:11:57.714Z,36.67
2019-04-01T08:14:27.074Z,37.77
2019-04-01T08:16:58.626Z,38.53
2019-04-01T08:19:27.228Z,36.03
2019-04-01T08:21:56.790Z,37.43
2019-04-01T08:24:26.170Z,35.53
2019-04-01T08:26:55.689Z,39.73
2019-04-01T08:29:30.386Z,39.93
2019-04-01T08:31:55.806Z,36.37
2019-04-01T08:34:25.308Z,35.70
2019-04-01T08:36:56.947Z,36.63
2019-04-01T08:39:26.364Z,38.20
2019-04-01T08:41:55.905Z,35.67
2019-04-01T08:44:25.060Z,37.23
2019-04-01T08:46:54.419Z,37.10
2019-04-01T08:49:23.923Z,36.47
2019-04-01T08:51:53.377Z,37.33
2019-04-01T08:54:23.012Z,35.53
2019-04-01T08:56:52.188Z,35.50
2019-04-01T08:59:21.438Z,36.27
2019-04-01T09:01:50.592Z,33.93
2019-04-01T09:04:19.993Z,35.40
2019-04-01T09:06:49.430Z,34.63
2019-04-01T09:09:19.051Z,32.60
2019-04-01T09:11:48.687Z,31.67
2019-04-01T09:14:18.106Z,37.43
2019-04-01T09:16:49.220Z,34.73
2019-04-01T09:19:18.449Z,37.13
2019-04-01T09:21:47.601Z,36.93
2019-04-01T09:24:16.789Z,31.07
2019-04-01T09:26:45.966Z,30.77
2019-04-01T09:29:15.393Z,31.87
2019-04-01T09:31:44.921Z,35.23
2019-04-01T09:34:14.137Z,34.13
2019-04-01T09:36:43.288Z,32.60
2019-04-01T09:39:12.591Z,34.13
2019-04-01T09:41:42.014Z,35.70
2019-04-01T09:44:11.205Z,30.07
2019-04-01T09:46:40.358Z,32.47
2019-04-01T09:49:09.748Z,33.63
2019-04-01T09:51:48.464Z,36.23
2019-04-01T09:54:10.264Z,31.67
2019-04-01T09:56:40.584Z,32.40
2019-04-01T09:59:09.901Z,36.83
2019-04-01T10:01:39.283Z,60.13
2019-04-01T10:04:08.447Z,29.77
2019-04-01T10:06:37.628Z,30.23
2019-04-01T10:09:08.938Z,31.67
2019-04-01T10:11:38.217Z,29.20
2019-04-01T10:14:07.397Z,31.03
2019-04-01T10:16:36.613Z,32.87
2019-04-01T10:19:06.020Z,29.63
2019-04-01T10:21:35.232Z,31.63
2019-04-01T10:24:04.619Z,31.50
2019-04-01T10:26:33.781Z,28.93
2019-04-01T10:29:03.342Z,36.57
2019-04-01T10:31:32.645Z,28.30
2019-04-01T10:34:01.917Z,29.13
2019-04-01T10:36:31.138Z,26.93
2019-04-01T10:39:00.528Z,28.40
2019-04-01T10:41:29.716Z,29.93
2019-04-01T10:43:58.900Z,30.60
2019-04-01T10:46:28.305Z,27.30
2019-04-01T10:48:57.802Z,28.67
2019-04-01T10:51:27.067Z,29.97
2019-04-01T10:53:56.427Z,28.23
2019-04-01T10:56:25.808Z,29.47
2019-04-01T10:58:55.036Z,29.90
2019-04-01T11:01:24.514Z,30.20
2019-04-01T11:03:54.035Z,28.57
2019-04-01T11:06:23.641Z,29.93
2019-04-01T11:08:52.997Z,27.27
2019-04-01T11:11:22.244Z,47.90
2019-04-01T11:13:51.987Z,41.73
2019-04-01T11:16:22.841Z,31.77
2019-04-01T11:18:52.233Z,25.53
2019-04-01T11:21:21.385Z,26.33
2019-04-01T11:23:50.592Z,26.53
2019-04-01T11:26:19.892Z,27.00
2019-04-01T11:28:49.101Z,22.67
2019-04-01T11:31:18.342Z,30.37
2019-04-01T11:33:48.181Z,24.20
2019-04-01T11:36:17.439Z,25.50
2019-04-01T11:38:46.700Z,25.48
2019-04-01T11:41:16.315Z,22.48
2019-04-01T11:43:45.881Z,26.23
2019-04-01T11:46:15.260Z,22.27
2019-04-01T11:48:44.821Z,23.07
2019-04-01T11:51:14.547Z,21.37
2019-04-01T11:53:44.062Z,22.15
2019-04-01T11:56:13.395Z,21.70
2019-04-01T11:58:42.647Z,22.15
2019-04-01T12:01:11.828Z,25.97
2019-04-01T12:03:41.348Z,29.80
2019-04-01T12:06:10.506Z,22.10
2019-04-01T12:08:39.911Z,24.57
2019-04-01T12:11:09.157Z,22.53
2019-04-01T12:13:38.344Z,23.20
2019-04-01T12:16:07.808Z,25.77
2019-04-01T12:18:37.396Z,24.93
2019-04-01T12:21:08.238Z,27.23
2019-04-01T12:23:37.832Z,26.10
2019-04-01T12:26:15.500Z,22.87
2019-04-01T12:28:40.344Z,23.93
2019-04-01T12:31:12.647Z,22.23
2019-04-01T12:33:40.636Z,23.13
2019-04-01T12:36:11.713Z,25.47
2019-04-01T12:38:41.187Z,22.27
2019-04-01T12:41:10.504Z,24.90
2019-04-01T12:43:39.731Z,24.57
2019-04-01T12:46:09.613Z,22.30
2019-04-01T12:48:39.125Z,22.70
2019-04-01T12:51:08.512Z,26.03
2019-04-01T12:53:37.811Z,25.57
2019-04-01T12:56:07.005Z,22.63
2019-04-01T12:58:45.243Z,23.10
2019-04-01T13:01:14.464Z,27.57
2019-04-01T13:03:43.715Z,25.87
2019-04-01T13:06:13.015Z,23.07
2019-04-01T13:08:43.884Z,20.17
2019-04-01T13:11:13.405Z,18.57
2019-04-01T13:13:42.845Z,20.23
2019-04-01T13:16:12.083Z,22.07
2019-04-01T13:18:41.356Z,18.63
2019-04-01T13:21:11.195Z,20.17
2019-04-01T13:23:40.722Z,19.20
2019-04-01T13:26:09.974Z,19.90
2019-04-01T13:28:42.250Z,19.93
2019-04-01T13:31:10.066Z,22.20
2019-04-01T13:33:39.357Z,17.17
2019-04-01T13:36:08.889Z,16.47
2019-04-01T13:38:40.251Z,17.10
2019-04-01T13:41:12.788Z,15.50
2019-04-01T13:43:40.479Z,16.00
2019-04-01T13:46:09.991Z,18.83
2019-04-01T13:48:39.159Z,14.80
2019-04-01T13:51:08.318Z,16.67
2019-04-01T13:53:37.668Z,18.43
2019-04-01T13:56:10.057Z,19.20
2019-04-01T13:58:39.266Z,17.80
2019-04-01T14:01:08.714Z,17.53
2019-04-01T14:03:37.909Z,19.10
2019-04-01T14:06:07.270Z,17.13
2019-04-01T14:08:36.571Z,17.73
2019-04-01T14:11:06.180Z,16.33
2019-04-01T14:13:35.593Z,16.33
2019-04-01T14:16:04.792Z,17.43
2019-04-01T14:18:34.200Z,18.00
2019-04-01T14:21:15.253Z,17.57
2019-04-01T14:23:34.702Z,17.30
2019-04-01T14:26:03.870Z,17.27
2019-04-01T14:28:33.125Z,20.13
2019-04-01T14:31:02.386Z,19.40
2019-04-01T14:33:32.710Z,19.23
2019-04-01T14:36:02.224Z,19.27
2019-04-01T14:38:31.349Z,18.53
2019-04-01T14:41:00.876Z,19.17
2019-04-01T14:43:31.351Z,19.03
2019-04-01T14:46:00.773Z,15.87
2019-04-01T14:48:30.746Z,17.50
2019-04-01T14:51:00.344Z,17.33
2019-04-01T14:53:29.649Z,17.33
2019-04-01T14:55:59.169Z,17.73
2019-04-01T14:58:28.713Z,19.40
2019-04-01T15:00:57.976Z,18.00
2019-04-01T15:03:27.182Z,16.30
2019-04-01T15:05:56.451Z,19.43
2019-04-01T15:08:25.917Z,18.63
2019-04-01T15:10:55.107Z,18.60
2019-04-01T15:13:24.280Z,17.60
2019-04-01T15:15:53.532Z,21.57
2019-04-01T15:18:22.668Z,18.67
2019-04-01T15:20:51.938Z,19.33
2019-04-01T15:23:24.787Z,19.07
2019-04-01T15:25:54.345Z,19.03
2019-04-01T15:28:23.255Z,19.97
2019-04-01T15:30:52.536Z,22.30
2019-04-01T15:33:21.780Z,16.43
2019-04-01T15:35:50.997Z,20.37
2019-04-01T15:38:21.298Z,18.10
2019-04-01T15:40:51.437Z,18.70
2019-04-01T15:43:20.662Z,19.40
2019-04-01T15:45:50.079Z,19.37
2019-04-01T15:48:19.425Z,17.20
2019-04-01T15:50:48.661Z,19.77
2019-04-01T15:53:17.905Z,17.80
2019-04-01T15:55:47.288Z,19.17
2019-04-01T15:58:16.529Z,19.40
2019-04-01T16:00:46.352Z,21.67
2019-04-01T16:03:15.540Z,19.60
2019-04-01T16:05:44.735Z,17.80
2019-04-01T16:08:13.933Z,18.53
2019-04-01T16:10:43.090Z,17.37
2019-04-01T16:13:12.268Z,20.17
2019-04-01T16:15:41.656Z,21.43
2019-04-01T16:18:10.853Z,19.60
2019-04-01T16:20:40.004Z,23.97
2019-04-01T16:23:09.219Z,18.07
2019-04-01T16:25:38.422Z,19.50
2019-04-01T16:28:07.818Z,20.27
2019-04-01T16:30:37.011Z,18.17
2019-04-01T16:33:06.269Z,18.03
2019-04-01T16:35:35.452Z,17.63
2019-04-01T16:38:04.803Z,17.33
2019-04-01T16:40:34.176Z,17.07
2019-04-01T16:43:03.329Z,16.57
2019-04-01T16:45:32.956Z,18.43
2019-04-01T16:48:02.216Z,16.90
2019-04-01T16:50:31.431Z,14.83
2019-04-01T16:53:00.687Z,15.33
2019-04-01T16:55:29.839Z,17.63
2019-04-01T16:57:59.023Z,15.67
2019-04-01T17:00:28.189Z,16.77
2019-04-01T17:03:16.465Z,24.23
2019-04-01T17:05:46.823Z,21.07
2019-04-01T17:08:16.380Z,15.80
2019-04-01T17:10:46.160Z,15.90
2019-04-01T17:13:15.529Z,16.97
2019-04-01T17:15:45.005Z,17.03
2019-04-01T17:18:14.210Z,17.30
2019-04-01T17:20:43.536Z,18.10
2019-04-01T17:23:13.011Z,18.77
2019-04-01T17:25:42.625Z,15.60
2019-04-01T17:28:11.788Z,16.67
2019-04-01T17:30:40.986Z,16.80
2019-04-01T17:33:10.158Z,18.77
2019-04-01T17:35:39.486Z,15.90
2019-04-01T17:38:08.668Z,17.07
2019-04-01T17:40:37.979Z,15.37
2019-04-01T17:43:09.450Z,15.50
2019-04-01T17:45:40.730Z,16.37
2019-04-01T17:48:10.339Z,15.93
2019-04-01T17:50:39.641Z,18.47
2019-04-01T17:53:11.494Z,16.33
2019-04-01T17:55:40.640Z,16.23
2019-04-01T17:58:09.818Z,17.83
2019-04-01T18:00:45.950Z,18.30
2019-04-01T18:03:15.126Z,12.80
2019-04-01T18:05:44.323Z,16.20
2019-04-01T18:08:13.597Z,17.00
2019-04-01T18:10:42.776Z,13.17
2019-04-01T18:13:12.168Z,28.50
2019-04-01T18:15:41.445Z,30.37
2019-04-01T18:18:10.778Z,12.73
2019-04-01T18:20:41.859Z,16.10
2019-04-01T18:23:11.149Z,14.37
2019-04-01T18:25:40.494Z,13.67
2019-04-01T18:28:09.709Z,19.60
2019-04-01T18:30:38.940Z,19.37
2019-04-01T18:33:08.117Z,29.17
2019-04-01T18:35:37.630Z,25.67
2019-04-01T18:38:07.034Z,33.43
2019-04-01T18:40:36.180Z,31.77
2019-04-01T18:43:05.467Z,29.33
2019-04-01T18:45:34.627Z,24.87
2019-04-01T18:48:03.850Z,22.30
2019-04-01T18:50:33.029Z,20.83
2019-04-01T18:53:02.540Z,55.83
2019-04-01T18:55:31.751Z,35.47
2019-04-01T18:58:00.941Z,16.33
2019-04-01T19:00:32.140Z,16.43
2019-04-01T19:03:01.449Z,15.83
2019-04-01T19:05:30.661Z,16.30
2019-04-01T19:08:00.109Z,23.67
2019-04-01T19:10:29.463Z,18.67
2019-04-01T19:13:05.647Z,19.83
2019-04-01T19:15:31.213Z,26.37
2019-04-01T19:18:00.940Z,21.50
2019-04-01T19:20:30.677Z,23.00
2019-04-01T19:22:59.869Z,20.67
2019-04-01T19:25:29.063Z,21.70
2019-04-01T19:27:58.204Z,21.93
2019-04-01T19:30:27.685Z,20.80
2019-04-01T19:32:56.824Z,24.40
2019-04-01T19:35:26.096Z,25.17
2019-04-01T19:37:56.361Z,19.70
2019-04-01T19:40:26.095Z,20.47
2019-04-01T19:42:55.872Z,22.00
2019-04-01T19:45:25.406Z,18.83
2019-04-01T19:47:57.240Z,18.00
2019-04-01T19:50:26.084Z,17.40
2019-04-01T19:52:55.431Z,19.33
2019-04-01T19:55:25.257Z,18.70
2019-04-01T19:57:56.098Z,19.50
2019-04-01T20:00:28.138Z,20.07
2019-04-01T20:02:56.891Z,17.50
2019-04-01T20:05:26.285Z,21.73
2019-04-01T20:07:56.143Z,21.43
2019-04-01T20:10:28.284Z,21.87
2019-04-01T20:12:58.746Z,20.83
2019-04-01T20:15:28.030Z,20.43
2019-04-01T20:17:57.351Z,18.90
2019-04-01T20:20:45.621Z,18.77
2019-04-01T20:23:14.902Z,19.13
2019-04-01T20:25:47.366Z,18.47
2019-04-01T20:28:15.636Z,19.33
2019-04-01T20:30:45.331Z,18.90
2019-04-01T20:33:18.058Z,30.13
2019-04-01T20:35:45.862Z,24.57
2019-04-01T20:38:15.154Z,22.43
2019-04-01T20:40:44.331Z,21.40
2019-04-01T20:43:22.385Z,21.70
2019-04-01T20:45:51.540Z,21.37
2019-04-01T20:48:20.716Z,20.20
2019-04-01T20:50:49.891Z,19.20
2019-04-01T20:53:19.474Z,20.63
2019-04-01T20:55:50.676Z,21.00
2019-04-01T20:58:19.977Z,26.43
2019-04-01T21:00:49.146Z,22.93
2019-04-01T21:03:18.332Z,21.77
2019-04-01T21:05:47.537Z,20.33
2019-04-01T21:08:16.901Z,23.67
2019-04-01T21:10:46.139Z,23.50
2019-04-01T21:13:16.592Z,22.87
2019-04-01T21:15:55.287Z,24.53
2019-04-01T21:18:24.457Z,23.03
2019-04-01T21:21:17.288Z,23.00
2019-04-01T21:23:46.578Z,23.07
2019-04-01T21:26:19.103Z,29.60
2019-04-01T21:28:48.292Z,27.13
2019-04-01T21:31:17.743Z,24.50
2019-04-01T21:33:47.113Z,24.07
2019-04-01T21:36:16.395Z,23.87
2019-04-01T21:38:45.688Z,23.07
2019-04-01T21:41:14.873Z,24.80
2019-04-01T21:43:44.096Z,33.87
2019-04-01T21:46:14.172Z,28.20
2019-04-01T21:48:44.063Z,24.67
2019-04-01T21:51:13.424Z,26.53
2019-04-01T21:53:42.621Z,26.90
2019-04-01T21:56:11.852Z,25.83
2019-04-01T21:58:41.172Z,27.57
2019-04-01T22:01:10.749Z,31.27
2019-04-01T22:03:42.137Z,26.53
2019-04-01T22:06:12.224Z,26.30
2019-04-01T22:08:41.677Z,25.47
2019-04-01T22:11:10.905Z,26.63
2019-04-01T22:13:40.249Z,28.63
2019-04-01T22:16:09.459Z,28.97
2019-04-01T22:18:38.623Z,26.93
2019-04-01T22:21:08.060Z,25.43
2019-04-01T22:23:37.336Z,25.40
2019-04-01T22:26:06.716Z,25.57
2019-04-01T22:28:35.898Z,26.70
2019-04-01T22:31:05.328Z,24.03
2019-04-01T22:33:34.928Z,26.57
2019-04-01T22:36:04.392Z,28.53
2019-04-01T22:38:34.962Z,28.87
2019-04-01T22:41:04.321Z,26.73
2019-04-01T22:43:33.469Z,26.87
2019-04-01T22:46:02.677Z,25.90
2019-04-01T22:48:32.236Z,24.47
2019-04-01T22:51:01.692Z,23.27
2019-04-01T22:53:30.862Z,27.13
2019-04-01T22:56:00.083Z,25.50
2019-04-01T22:58:29.263Z,24.40
2019-04-01T23:00:58.513Z,23.70
2019-04-01T23:03:27.764Z,28.13
2019-04-01T23:05:56.963Z,25.27
2019-04-01T23:08:26.135Z,30.53
2019-04-01T23:10:56.518Z,33.77
2019-04-01T23:13:26.264Z,28.50
2019-04-01T23:16:14.831Z,35.00
2019-04-01T23:18:44.032Z,31.00
2019-04-01T23:21:13.210Z,31.33
2019-04-01T23:23:42.423Z,30.83
2019-04-01T23:26:11.981Z,29.13
2019-04-01T23:28:41.505Z,26.20
2019-04-01T23:31:11.128Z,26.10
2019-04-01T23:33:40.680Z,29.00
2019-04-01T23:36:10.152Z,32.07
2019-04-01T23:38:39.788Z,28.63
2019-04-01T23:41:09.109Z,30.43
2019-04-01T23:43:38.651Z,30.80
2019-04-01T23:46:08.237Z,27.53
2019-04-01T23:48:37.810Z,26.40
2019-04-01T23:51:07.614Z,28.00
2019-04-01T23:53:37.004Z,24.83
2019-04-01T23:56:06.352Z,24.00
2019-04-01T23:58:35.870Z,26.03
